createdAt,value
2022-08-19T00:23:57.000Z,88.0
2022-08-19T00:53:58.000Z,89.0
2022-08-19T01:24:01.000Z,90.0
2022-08-19T01:54:02.662Z,91
2022-08-19T02:24:06.000Z,91.0
2022-08-19T02:54:16.000Z,91.0
2022-08-19T03:24:19.000Z,91.0
2022-08-19T03:54:23.000Z,91.0
2022-08-19T04:24:29.000Z,92.0
2022-08-19T04:54:31.000Z,92.0
2022-08-19T05:24:41.000Z,92.0
2022-08-19T05:54:43.000Z,93.0
2022-08-19T06:24:45.000Z,92.0
2022-08-19T06:54:55.000Z,92.0
2022-08-19T07:24:57.000Z,91.0
2022-08-19T07:54:59.000Z,90.0
2022-08-19T08:25:03.000Z,90.0
2022-08-19T08:55:05.000Z,90.0
2022-08-19T09:25:14.445Z,88
2022-08-19T09:55:15.000Z,88.0
2022-08-19T10:25:21.000Z,87.0
2022-08-19T10:55:23.000Z,89.0
2022-08-19T11:25:26.333Z,88
2022-08-19T11:55:27.000Z,89.0
2022-08-19T12:25:32.000Z,85.0
2022-08-19T12:55:38.000Z,83.0
2022-08-19T13:25:38.529Z,84
2022-08-19T13:55:39.000Z,85.0
2022-08-19T14:25:42.413Z,76
2022-08-19T14:55:52.000Z,82.0
2022-08-19T15:25:57.504Z,80
2022-08-19T15:55:59.000Z,83.0
2022-08-19T16:26:04.000Z,81.0
2022-08-19T16:56:14.166Z,82
2022-08-19T17:26:20.000Z,78.0
2022-08-19T17:56:26.301Z,79
2022-08-19T18:26:29.247Z,82
2022-08-19T18:56:35.000Z,85.0
2022-08-19T19:26:41.000Z,88.0
2022-08-19T19:56:45.326Z,91
2022-08-19T20:26:47.000Z,91.0
2022-08-19T20:56:56.000Z,91.0
2022-08-19T21:27:06.000Z,91.0
2022-08-19T21:57:09.000Z,90.0
2022-08-19T22:27:19.910Z,90
2022-08-19T22:57:29.000Z,87.0
2022-08-19T23:27:33.000Z,87.0
2022-08-19T23:57:37.000Z,89.0
